Time;durP1;ratioP1;P1;durP2;ratioP2;P2;SDS_P1;SDS_P2;PMS_P1;PMS_P2;Temp;Humidity;BMP_temperature;BMP_pressure;BME280_temperature;BME280_humidity;BME280_pressure;Samples;Min_cycle;Max_cycle;Signal;HPM_P1;HPM_P2
2022/04/06 00:00:19;;;;;;;3.33;2.00;;;16.20;72.10;;;;;;2005563;28;20412;-77
2022/04/06 00:01:18;;;;;;;2.40;1.52;;;16.20;72.00;;;;;;2005691;28;20185;-77
2022/04/06 00:02:16;;;;;;;2.77;1.67;;;16.20;72.00;;;;;;2005567;28;20177;-77
2022/04/06 00:03:15;;;;;;;3.20;1.50;;;16.10;71.90;;;;;;2005617;28;20220;-76
2022/04/06 00:04:14;;;;;;;3.00;1.60;;;16.10;71.90;;;;;;2005400;28;20181;-77
2022/04/06 00:05:13;;;;;;;1.70;1.50;;;16.10;72.00;;;;;;2004958;28;20173;-76
2022/04/06 00:06:12;;;;;;;1.60;1.50;;;16.20;72.20;;;;;;2005025;28;20180;-76
2022/04/06 00:07:10;;;;;;;2.07;1.43;;;16.10;72.10;;;;;;2005213;28;20684;-76
2022/04/06 00:08:09;;;;;;;2.03;1.60;;;16.10;72.10;;;;;;2004505;28;20193;-77
2022/04/06 00:09:08;;;;;;;2.13;1.60;;;16.10;72.00;;;;;;2004818;28;20193;-76
2022/04/06 00:10:08;;;;;;;1.30;1.20;;;16.10;72.00;;;;;;2005368;28;20891;-76
2022/04/06 00:11:06;;;;;;;1.63;1.38;;;16.10;72.00;;;;;;2005498;28;20208;-77
2022/04/06 00:12:05;;;;;;;2.43;2.10;;;16.10;72.00;;;;;;2004903;28;20173;-77
2022/04/06 00:13:04;;;;;;;2.10;1.52;;;16.10;72.00;;;;;;2004830;28;20186;-77
2022/04/06 00:14:03;;;;;;;2.87;1.87;;;16.10;72.00;;;;;;2005407;28;20188;-76
2022/04/06 00:15:02;;;;;;;1.77;1.43;;;16.10;72.00;;;;;;2005581;28;20187;-77
2022/04/06 00:16:01;;;;;;;2.00;1.48;;;16.10;72.00;;;;;;2005349;28;20201;-76
2022/04/06 00:17:04;;;;;;;1.90;1.50;;;16.10;72.00;;;;;;2005380;28;20204;-76
2022/04/06 00:18:03;;;;;;;1.75;1.60;;;16.10;71.90;;;;;;2004504;28;20192;-77
2022/04/06 00:19:02;;;;;;;1.55;1.27;;;16.10;71.90;;;;;;2004600;28;20188;-77
2022/04/06 00:20:01;;;;;;;5.50;1.60;;;16.10;71.90;;;;;;2005502;28;20173;-76
2022/04/06 00:21:00;;;;;;;1.67;1.53;;;16.10;72.00;;;;;;2005416;28;20173;-76
2022/04/06 00:21:59;;;;;;;2.97;1.77;;;16.20;72.10;;;;;;2006657;28;20415;-77
2022/04/06 00:22:58;;;;;;;2.33;1.70;;;16.10;71.80;;;;;;2006194;28;20415;-76
2022/04/06 00:23:58;;;;;;;2.50;1.60;;;16.20;71.90;;;;;;2005795;28;20461;-77
2022/04/06 00:24:58;;;;;;;2.65;1.50;;;16.20;71.90;;;;;;2007559;28;20594;-76
2022/04/06 00:25:56;;;;;;;4.13;2.00;;;16.10;71.80;;;;;;2011689;28;20516;-76
2022/04/06 00:26:55;;;;;;;1.93;1.30;;;16.10;72.00;;;;;;2013064;28;20205;-76
2022/04/06 00:27:54;;;;;;;2.13;1.67;;;16.10;71.90;;;;;;2013424;28;20177;-77
2022/04/06 00:28:53;;;;;;;1.33;1.13;;;16.10;72.00;;;;;;2010244;28;20197;-76
2022/04/06 00:29:52;;;;;;;2.42;1.60;;;16.10;72.00;;;;;;2006495;28;20204;-76
2022/04/06 00:30:53;;;;;;;2.43;1.80;;;16.10;72.00;;;;;;2006928;28;20637;-76
2022/04/06 00:31:51;;;;;;;2.58;1.55;;;16.20;72.10;;;;;;2008532;28;20311;-76
2022/04/06 00:32:51;;;;;;;1.40;1.27;;;16.20;72.00;;;;;;2009433;28;20169;-76
2022/04/06 00:33:53;;;;;;;1.85;1.20;;;16.10;72.00;;;;;;1997499;28;20178;-77
2022/04/06 00:36:09;;;;;;;2.25;2.05;;;16.10;71.90;;;;;;2005711;28;20165;-76
2022/04/06 00:37:11;;;;;;;2.20;1.40;;;16.10;71.80;;;;;;2005816;28;20165;-76
2022/04/06 00:38:10;;;;;;;3.25;1.80;;;16.20;72.00;;;;;;2005265;28;20261;-76
2022/04/06 00:39:09;;;;;;;1.77;1.23;;;16.10;71.80;;;;;;2005507;28;20185;-76
2022/04/06 00:40:09;;;;;;;1.48;1.33;;;16.10;71.80;;;;;;2005746;28;20252;-77
2022/04/06 00:41:09;;;;;;;2.00;1.70;;;16.20;71.80;;;;;;2004822;28;20747;-76
2022/04/06 00:42:10;;;;;;;1.77;1.38;;;16.20;71.90;;;;;;2004601;28;20632;-76
2022/04/06 00:43:13;;;;;;;1.75;1.52;;;16.20;71.90;;;;;;2005237;28;20181;-76
2022/04/06 00:44:17;;;;;;;2.45;1.38;;;16.10;71.70;;;;;;2004550;28;20180;-76
2022/04/06 00:45:16;;;;;;;3.03;1.52;;;16.10;71.70;;;;;;2004858;28;20212;-77
2022/04/06 00:46:14;;;;;;;1.80;1.63;;;16.10;71.70;;;;;;2005171;28;20524;-76
2022/04/06 00:47:13;;;;;;;1.63;1.23;;;16.10;71.60;;;;;;2004856;28;20475;-77
2022/04/06 00:48:11;;;;;;;1.53;1.43;;;16.20;71.90;;;;;;2004437;28;20169;-76
2022/04/06 00:49:13;;;;;;;2.73;1.60;;;16.20;71.80;;;;;;2005035;28;20292;-76
2022/04/06 00:50:12;;;;;;;1.60;1.35;;;16.20;71.70;;;;;;2005366;28;20177;-76
2022/04/06 00:51:10;;;;;;;2.50;1.40;;;16.20;71.80;;;;;;2005139;28;20173;-77
2022/04/06 00:52:09;;;;;;;1.70;1.40;;;16.10;71.70;;;;;;2005227;28;20179;-77
2022/04/06 00:53:08;;;;;;;2.07;1.50;;;16.20;71.80;;;;;;2004677;28;20547;-77
2022/04/06 00:54:10;;;;;;;2.60;1.70;;;16.10;71.70;;;;;;2004591;28;20805;-77
2022/04/06 00:55:11;;;;;;;2.10;1.55;;;16.10;71.70;;;;;;2004708;28;20749;-77
2022/04/06 00:56:11;;;;;;;1.90;1.67;;;16.10;71.80;;;;;;2004448;28;20540;-77
2022/04/06 00:57:10;;;;;;;3.10;1.83;;;16.10;71.80;;;;;;2005311;28;20192;-77
2022/04/06 00:58:09;;;;;;;2.03;1.42;;;16.10;71.80;;;;;;2005209;28;20256;-77
2022/04/06 00:59:10;;;;;;;1.77;1.50;;;16.10;71.80;;;;;;2005256;28;20173;-77
2022/04/06 01:00:10;;;;;;;1.88;1.25;;;16.10;71.70;;;;;;1996577;28;20182;-76
2022/04/06 01:01:08;;;;;;;1.20;1.10;;;16.10;71.70;;;;;;1996815;28;20192;-76
2022/04/06 01:02:08;;;;;;;2.20;1.60;;;16.10;71.80;;;;;;2004040;28;20181;-77
2022/04/06 01:03:06;;;;;;;3.17;1.60;;;16.10;71.70;;;;;;2004638;28;20173;-76
2022/04/06 01:04:05;;;;;;;1.77;1.60;;;16.10;71.90;;;;;;2003931;28;20396;-76
2022/04/06 01:05:04;;;;;;;1.90;1.30;;;16.10;71.80;;;;;;2004663;28;20185;-77
2022/04/06 01:06:02;;;;;;;1.55;1.13;;;16.10;71.90;;;;;;2005007;28;20181;-77
2022/04/06 01:07:01;;;;;;;5.73;1.50;;;16.10;71.90;;;;;;2004996;28;20208;-77
2022/04/06 01:08:01;;;;;;;2.00;1.45;;;16.10;71.90;;;;;;2005068;28;20181;-76
2022/04/06 01:09:01;;;;;;;1.55;1.42;;;16.10;71.90;;;;;;2005067;28;20205;-77
2022/04/06 01:10:00;;;;;;;2.45;1.42;;;16.10;71.90;;;;;;2005070;28;20184;-76
2022/04/06 01:10:58;;;;;;;2.30;1.50;;;16.10;71.90;;;;;;2005113;28;20682;-76
2022/04/06 01:11:58;;;;;;;2.43;1.40;;;16.10;71.90;;;;;;2005158;28;20918;-77
2022/04/06 01:12:57;;;;;;;1.20;1.10;;;16.10;71.80;;;;;;2005059;28;20192;-77
2022/04/06 01:13:57;;;;;;;2.78;1.70;;;16.10;72.50;;;;;;2005130;28;20299;-77
2022/04/06 01:14:57;;;;;;;1.48;1.20;;;16.10;71.80;;;;;;2005230;28;20571;-77
2022/04/06 01:15:55;;;;;;;2.60;1.50;;;16.10;72.00;;;;;;2004890;28;20172;-76
2022/04/06 01:16:59;;;;;;;2.83;1.47;;;16.10;71.90;;;;;;2004803;28;20205;-76
2022/04/06 01:17:58;;;;;;;2.25;1.70;;;16.10;71.80;;;;;;2004917;28;20177;-77
2022/04/06 01:18:57;;;;;;;1.93;1.70;;;16.10;71.80;;;;;;2004791;28;20180;-77
2022/04/06 01:19:55;;;;;;;1.67;1.23;;;16.20;72.00;;;;;;2005122;28;20930;-77
2022/04/06 01:20:54;;;;;;;1.83;1.40;;;16.10;71.90;;;;;;2004849;28;20173;-76
2022/04/06 01:21:55;;;;;;;1.60;1.50;;;16.10;71.90;;;;;;2004453;28;20662;-76
2022/04/06 01:22:53;;;;;;;1.85;1.60;;;16.10;71.90;;;;;;2004219;28;20268;-77
2022/04/06 01:23:52;;;;;;;2.50;1.57;;;16.10;71.80;;;;;;2006030;28;20192;-76
2022/04/06 01:24:51;;;;;;;2.23;1.40;;;16.10;71.90;;;;;;2004274;28;20268;-76
2022/04/06 01:25:50;;;;;;;1.27;1.17;;;16.10;71.80;;;;;;2004433;28;20188;-76
2022/04/06 01:26:49;;;;;;;3.67;1.65;;;16.10;71.90;;;;;;2005016;28;20204;-76
2022/04/06 01:27:47;;;;;;;1.53;1.30;;;16.10;71.80;;;;;;2004965;28;20257;-77
2022/04/06 01:28:46;;;;;;;3.47;1.60;;;16.10;71.90;;;;;;2004190;28;20284;-76
2022/04/06 01:29:46;;;;;;;1.73;1.43;;;16.10;72.00;;;;;;2004130;28;20235;-76
2022/04/06 01:30:46;;;;;;;2.13;1.40;;;16.10;71.90;;;;;;2004313;28;20514;-76
2022/04/06 01:31:46;;;;;;;1.75;1.27;;;16.10;71.80;;;;;;2004847;28;20169;-76
2022/04/06 01:32:44;;;;;;;1.60;1.20;;;16.10;71.90;;;;;;2004863;28;20180;-76
2022/04/06 01:33:44;;;;;;;2.03;1.27;;;16.10;72.70;;;;;;2004269;28;20235;-76
2022/04/06 01:34:44;;;;;;;3.20;1.60;;;16.10;71.90;;;;;;2004513;28;20165;-76
2022/04/06 01:35:43;;;;;;;2.47;1.45;;;16.10;71.90;;;;;;2004455;28;20185;-76
2022/04/06 01:36:43;;;;;;;2.33;1.67;;;16.10;72.00;;;;;;2004233;28;20622;-76
2022/04/06 01:37:43;;;;;;;1.38;1.20;;;16.10;71.90;;;;;;2005075;28;20261;-76
2022/04/06 01:38:42;;;;;;;2.55;1.38;;;16.10;71.90;;;;;;2004886;28;20585;-76
2022/04/06 01:39:44;;;;;;;1.35;1.15;;;16.20;72.00;;;;;;2004864;28;20200;-78
2022/04/06 01:40:42;;;;;;;1.33;1.23;;;16.10;71.90;;;;;;2004831;28;20166;-76
2022/04/06 01:41:41;;;;;;;1.40;1.30;;;16.20;72.00;;;;;;2005007;28;20181;-77
2022/04/06 01:42:39;;;;;;;1.57;1.20;;;16.10;71.90;;;;;;2004756;28;20196;-77
2022/04/06 01:43:38;;;;;;;1.30;1.20;;;16.10;71.90;;;;;;2004888;28;20200;-76
2022/04/06 01:44:37;;;;;;;1.90;1.20;;;16.20;72.00;;;;;;2004961;28;20165;-77
2022/04/06 01:45:39;;;;;;;1.70;1.40;;;16.10;71.90;;;;;;2005010;28;20196;-76
2022/04/06 01:46:37;;;;;;;1.13;1.00;;;16.20;72.00;;;;;;2004818;28;20195;-76
2022/04/06 01:47:36;;;;;;;2.10;1.20;;;16.20;72.00;;;;;;2004945;28;20176;-76
2022/04/06 01:52:11;;;;;;;1.60;1.45;;;16.10;71.90;;;;;;2003955;28;20757;-76
2022/04/06 01:52:31;;;;;;;1.42;1.33;;;16.10;72.00;;;;;;2004348;28;20192;-78
2022/04/06 01:53:30;;;;;;;1.10;1.00;;;16.10;72.00;;;;;;2004307;28;20184;-78
2022/04/06 01:54:30;;;;;;;1.40;1.30;;;16.10;71.80;;;;;;2004838;28;20185;-76
2022/04/06 01:55:29;;;;;;;2.05;1.42;;;16.10;71.90;;;;;;2004780;28;20165;-77
2022/04/06 01:56:29;;;;;;;1.48;1.38;;;16.10;71.90;;;;;;2004894;28;20184;-76
2022/04/06 01:57:30;;;;;;;1.27;1.00;;;16.10;71.80;;;;;;2004696;28;20193;-76
2022/04/06 01:58:29;;;;;;;1.70;1.60;;;16.10;71.80;;;;;;2004806;28;20176;-75
2022/04/06 01:59:31;;;;;;;1.20;1.10;;;16.10;71.80;;;;;;2004775;28;20169;-76
2022/04/06 02:00:29;;;;;;;1.20;1.10;;;16.10;71.70;;;;;;2004878;28;20192;-76
2022/04/06 02:01:28;;;;;;;3.33;1.07;;;16.10;71.70;;;;;;2004817;28;20259;-76
2022/04/06 02:02:33;;;;;;;1.37;1.10;;;16.10;71.70;;;;;;2004851;28;20173;-76
2022/04/06 02:03:31;;;;;;;2.55;1.20;;;16.10;71.70;;;;;;2004977;28;20253;-77
2022/04/06 02:04:31;;;;;;;1.67;1.30;;;16.10;71.70;;;;;;2004490;28;20179;-77
2022/04/06 02:05:33;;;;;;;1.20;1.10;;;16.10;71.80;;;;;;1996174;28;20181;-78
2022/04/06 02:06:31;;;;;;;1.25;1.15;;;16.10;71.70;;;;;;2004356;28;20260;-76
2022/04/06 02:07:30;;;;;;;1.90;1.60;;;16.10;71.70;;;;;;2004148;28;20180;-76
2022/04/06 02:08:29;;;;;;;1.30;1.00;;;16.10;71.60;;;;;;2004445;28;20934;-76
2022/04/06 02:09:27;;;;;;;1.23;1.10;;;16.10;71.70;;;;;;2005218;28;20177;-77
2022/04/06 02:10:27;;;;;;;2.30;1.40;;;16.10;71.70;;;;;;2004857;28;20173;-76
2022/04/06 02:11:25;;;;;;;2.30;1.15;;;16.10;71.60;;;;;;2004747;28;20173;-76
2022/04/06 02:12:24;;;;;;;2.08;1.58;;;16.10;71.60;;;;;;2004838;28;20181;-76
2022/04/06 02:13:26;;;;;;;1.93;1.20;;;16.10;71.60;;;;;;2005181;28;20542;-76
2022/04/06 02:14:25;;;;;;;1.27;1.17;;;16.10;71.60;;;;;;2004151;28;20184;-76
2022/04/06 02:15:27;;;;;;;1.42;1.02;;;16.10;71.60;;;;;;2004253;28;20181;-77
2022/04/06 02:16:26;;;;;;;2.30;1.50;;;16.10;71.70;;;;;;2004359;28;20184;-76
2022/04/06 02:17:28;;;;;;;1.63;1.25;;;16.10;71.70;;;;;;2004577;28;20181;-76
2022/04/06 02:18:28;;;;;;;2.90;1.30;;;16.10;71.60;;;;;;2004748;28;20256;-76
2022/04/06 02:19:27;;;;;;;3.28;1.55;;;16.10;71.60;;;;;;2005170;28;20177;-76
2022/04/06 02:20:25;;;;;;;1.50;1.23;;;16.10;71.70;;;;;;2005268;28;20636;-76
2022/04/06 02:21:24;;;;;;;1.70;1.20;;;16.10;71.70;;;;;;2004939;28;20185;-76
2022/04/06 02:22:23;;;;;;;1.87;1.30;;;16.10;71.60;;;;;;2004974;28;20698;-76
2022/04/06 02:23:24;;;;;;;1.83;1.30;;;16.10;71.60;;;;;;2004923;28;20617;-76
2022/04/06 02:24:23;;;;;;;1.27;1.17;;;16.10;71.60;;;;;;2005400;28;20178;-76
2022/04/06 02:25:22;;;;;;;1.70;1.40;;;16.10;71.70;;;;;;2005534;28;20180;-76
2022/04/06 02:26:21;;;;;;;1.98;1.35;;;16.10;71.70;;;;;;2004819;28;20636;-76
2022/04/06 02:27:22;;;;;;;1.17;1.07;;;16.10;71.60;;;;;;2004356;28;20181;-78
2022/04/06 02:28:20;;;;;;;1.83;1.48;;;16.10;71.60;;;;;;2004655;28;20173;-77
2022/04/06 02:29:19;;;;;;;1.33;1.20;;;16.10;71.60;;;;;;2005209;28;20193;-76
2022/04/06 02:30:21;;;;;;;1.70;1.10;;;16.10;71.70;;;;;;2003945;28;20173;-76
2022/04/06 02:31:22;;;;;;;2.97;1.30;;;16.10;71.60;;;;;;2004345;28;20196;-77
2022/04/06 02:32:21;;;;;;;1.30;1.13;;;16.10;71.60;;;;;;2004966;28;20236;-76
2022/04/06 02:33:21;;;;;;;1.30;1.10;;;16.10;71.40;;;;;;2005263;28;20169;-76
2022/04/06 02:34:21;;;;;;;2.92;1.50;;;16.10;71.60;;;;;;2004574;28;20180;-77
2022/04/06 02:35:20;;;;;;;2.03;1.15;;;16.00;71.60;;;;;;2004755;28;20178;-76
2022/04/06 02:36:19;;;;;;;1.77;1.20;;;16.00;71.70;;;;;;2004529;28;20185;-77
2022/04/06 02:37:18;;;;;;;2.40;1.57;;;16.10;71.80;;;;;;2004207;28;20762;-78
2022/04/06 02:38:16;;;;;;;1.23;1.03;;;16.00;71.50;;;;;;2004987;28;20295;-76
2022/04/06 02:39:15;;;;;;;2.20;1.40;;;16.10;71.70;;;;;;2004739;28;20203;-77
2022/04/06 02:40:19;;;;;;;1.53;1.40;;;16.00;71.60;;;;;;2003891;28;20200;-76
2022/04/06 02:41:18;;;;;;;1.85;1.40;;;16.10;71.60;;;;;;2003779;28;20271;-79
2022/04/06 02:42:16;;;;;;;1.50;1.00;;;16.10;71.60;;;;;;2005129;28;20181;-76
2022/04/06 02:43:16;;;;;;;2.27;1.20;;;16.10;71.70;;;;;;2005932;28;20418;-76
2022/04/06 02:44:15;;;;;;;1.55;1.10;;;16.10;71.80;;;;;;2006106;28;20177;-77
2022/04/06 02:45:14;;;;;;;3.20;1.30;;;16.10;71.70;;;;;;2005507;28;20598;-77
2022/04/06 02:46:14;;;;;;;1.50;1.30;;;16.00;71.60;;;;;;2005602;28;20404;-77
2022/04/06 02:47:13;;;;;;;1.50;1.20;;;16.00;71.70;;;;;;2006114;28;20710;-77
2022/04/06 02:48:11;;;;;;;3.07;1.57;;;16.00;71.70;;;;;;2005917;28;20181;-76
2022/04/06 02:49:11;;;;;;;2.10;1.40;;;16.00;71.70;;;;;;2005407;28;20207;-76
2022/04/06 02:50:10;;;;;;;2.42;1.65;;;16.10;71.70;;;;;;1997766;28;20188;-77
2022/04/06 02:51:11;;;;;;;1.57;1.17;;;16.10;71.70;;;;;;2005253;28;20181;-77
2022/04/06 02:52:11;;;;;;;1.60;1.40;;;16.00;71.50;;;;;;2006070;28;20276;-77
2022/04/06 02:53:12;;;;;;;1.85;1.30;;;16.00;71.60;;;;;;2005904;28;20199;-76
2022/04/06 02:54:11;;;;;;;1.25;1.15;;;16.00;71.60;;;;;;2006050;28;20173;-77
2022/04/06 02:55:12;;;;;;;2.03;1.43;;;16.00;71.50;;;;;;2005977;28;20186;-76
2022/04/06 02:56:11;;;;;;;1.25;1.15;;;16.10;71.80;;;;;;1997361;28;20943;-76
2022/04/06 02:57:10;;;;;;;1.73;1.20;;;16.00;71.60;;;;;;1989836;28;20248;-76
2022/04/06 02:58:08;;;;;;;2.43;1.23;;;16.10;71.70;;;;;;2004985;28;20616;-77
2022/04/06 02:59:08;;;;;;;2.50;1.10;;;16.10;71.50;;;;;;2005943;28;20241;-76
2022/04/06 03:00:08;;;;;;;1.73;1.23;;;16.00;71.50;;;;;;2005900;28;20215;-77
2022/04/06 03:01:06;;;;;;;1.63;1.30;;;16.10;71.50;;;;;;2005804;28;20181;-76
2022/04/06 03:02:05;;;;;;;1.03;0.93;;;16.10;71.50;;;;;;2005851;28;20583;-76
2022/04/06 03:03:04;;;;;;;1.63;1.10;;;16.10;71.60;;;;;;2005878;28;20420;-77
2022/04/06 03:04:02;;;;;;;1.70;1.20;;;16.00;71.40;;;;;;2005860;28;20719;-76
2022/04/06 03:05:01;;;;;;;1.63;1.27;;;16.00;71.50;;;;;;2005749;28;20183;-76
2022/04/06 03:06:01;;;;;;;1.80;1.23;;;16.10;71.60;;;;;;2005892;28;20177;-76
2022/04/06 03:07:02;;;;;;;1.27;0.98;;;16.10;71.60;;;;;;2005940;28;20212;-77
2022/04/06 03:08:01;;;;;;;1.30;1.20;;;15.90;71.40;;;;;;2006193;28;20308;-77
2022/04/06 03:09:00;;;;;;;1.53;1.10;;;16.00;71.50;;;;;;2005838;28;20731;-76
2022/04/06 03:10:01;;;;;;;1.38;1.27;;;16.00;71.50;;;;;;2005914;28;20248;-76
2022/04/06 03:10:59;;;;;;;1.17;1.08;;;16.00;71.50;;;;;;2006584;28;20192;-76
2022/04/06 03:11:59;;;;;;;1.10;1.00;;;16.00;71.50;;;;;;2006834;28;20204;-76
2022/04/06 03:12:58;;;;;;;1.20;1.10;;;16.00;71.40;;;;;;2005980;28;20177;-77
2022/04/06 03:13:57;;;;;;;1.83;1.40;;;16.00;71.50;;;;;;2005998;28;20204;-77
2022/04/06 03:14:55;;;;;;;1.70;1.10;;;16.10;71.50;;;;;;2005724;28;20580;-77
2022/04/06 03:15:54;;;;;;;2.73;1.30;;;16.00;71.50;;;;;;2005597;28;20177;-77
2022/04/06 03:16:52;;;;;;;1.10;1.00;;;16.00;71.40;;;;;;2013459;28;20196;-77
2022/04/06 03:17:51;;;;;;;2.43;1.13;;;16.00;71.60;;;;;;2012275;28;20223;-76
2022/04/06 03:18:49;;;;;;;5.17;1.80;;;16.00;71.50;;;;;;2007342;28;20173;-76
2022/04/06 03:19:53;;;;;;;1.43;1.30;;;16.00;71.40;;;;;;2007192;28;20212;-78
2022/04/06 03:20:51;;;;;;;1.13;1.02;;;16.00;71.40;;;;;;2007004;28;20169;-76
2022/04/06 03:21:50;;;;;;;1.20;1.10;;;16.00;71.50;;;;;;2006182;28;20546;-76
2022/04/06 03:22:49;;;;;;;1.37;1.27;;;16.00;71.50;;;;;;2005494;28;20243;-76
2022/04/06 03:23:47;;;;;;;1.93;1.73;;;16.00;71.40;;;;;;2005399;28;20448;-76
2022/04/06 03:24:47;;;;;;;1.80;1.23;;;16.00;71.50;;;;;;2005007;28;20185;-76
2022/04/06 03:25:45;;;;;;;1.73;1.15;;;16.00;71.50;;;;;;2005403;28;20173;-78
2022/04/06 03:26:45;;;;;;;1.70;1.50;;;16.00;71.40;;;;;;2005863;28;20197;-76
2022/04/06 03:27:43;;;;;;;1.70;1.45;;;16.00;71.40;;;;;;2005792;28;20275;-77
2022/04/06 03:28:42;;;;;;;2.10;1.40;;;16.00;71.40;;;;;;2006085;28;20236;-76
2022/04/06 03:29:41;;;;;;;1.00;0.90;;;16.00;71.50;;;;;;2005713;28;20805;-76
2022/04/06 03:30:40;;;;;;;1.53;1.10;;;16.00;71.40;;;;;;2005674;28;20196;-77
2022/04/06 03:31:39;;;;;;;2.10;1.35;;;16.00;71.30;;;;;;2005717;28;20180;-76
2022/04/06 03:32:38;;;;;;;2.97;1.27;;;16.00;71.40;;;;;;2005813;28;20172;-76
2022/04/06 03:33:37;;;;;;;1.45;1.00;;;16.10;71.60;;;;;;2005678;28;20643;-78
2022/04/06 03:34:37;;;;;;;2.50;1.23;;;16.00;71.60;;;;;;2005787;28;20177;-76
2022/04/06 03:35:38;;;;;;;3.63;1.65;;;16.00;71.60;;;;;;2005550;28;20188;-76
2022/04/06 03:36:38;;;;;;;1.20;1.10;;;16.00;71.60;;;;;;2005740;28;20267;-75
2022/04/06 03:37:36;;;;;;;1.38;1.23;;;16.00;71.50;;;;;;2005695;28;20520;-76
2022/04/06 03:38:35;;;;;;;1.60;1.10;;;16.00;71.50;;;;;;2005572;28;20215;-77
2022/04/06 03:39:34;;;;;;;2.47;1.30;;;16.00;71.50;;;;;;2005788;28;20180;-76
2022/04/06 03:40:32;;;;;;;1.07;0.93;;;16.00;71.50;;;;;;2005585;28;20620;-77
2022/04/06 03:41:31;;;;;;;1.80;1.50;;;16.00;71.60;;;;;;2005711;28;20454;-76
2022/04/06 03:42:34;;;;;;;1.53;1.10;;;16.10;71.70;;;;;;2005131;28;20808;-76
2022/04/06 03:43:32;;;;;;;1.30;1.10;;;16.00;71.50;;;;;;2005036;28;20400;-77
2022/04/06 03:44:31;;;;;;;1.40;1.00;;;16.00;71.50;;;;;;2005117;28;20636;-75
2022/04/06 03:45:29;;;;;;;1.53;1.33;;;16.00;71.60;;;;;;2005213;28;20288;-77
2022/04/06 03:46:31;;;;;;;1.60;1.10;;;16.00;71.60;;;;;;2005586;28;20193;-77
2022/04/06 03:47:34;;;;;;;1.30;1.13;;;16.00;71.40;;;;;;2005732;28;20201;-77
2022/04/06 03:48:33;;;;;;;1.92;1.23;;;16.00;71.60;;;;;;2006234;28;20279;-77
2022/04/06 03:49:36;;;;;;;1.83;1.20;;;16.00;71.60;;;;;;2005758;28;20570;-77
2022/04/06 03:50:35;;;;;;;2.03;1.05;;;16.00;71.60;;;;;;2005813;28;20185;-77
2022/04/06 03:51:34;;;;;;;1.40;1.20;;;16.00;71.60;;;;;;2005838;28;20181;-77
2022/04/06 03:52:33;;;;;;;1.33;1.23;;;16.00;71.50;;;;;;2005046;28;20589;-77
2022/04/06 03:53:31;;;;;;;2.50;1.10;;;16.00;71.50;;;;;;2004261;28;20195;-76
2022/04/06 03:54:30;;;;;;;1.77;1.23;;;16.00;71.50;;;;;;2005528;28;20181;-76
2022/04/06 03:55:29;;;;;;;1.97;1.50;;;15.90;71.30;;;;;;2005537;28;20412;-76
2022/04/06 03:56:27;;;;;;;1.40;1.10;;;16.00;71.40;;;;;;2005593;28;20201;-76
2022/04/06 03:57:26;;;;;;;1.57;1.30;;;16.00;71.40;;;;;;2005244;28;20184;-76
2022/04/06 03:58:25;;;;;;;1.83;1.20;;;16.00;71.50;;;;;;2005655;28;20169;-78
2022/04/06 03:59:23;;;;;;;1.20;1.10;;;16.00;71.50;;;;;;2005720;28;20535;-76
2022/04/06 04:00:23;;;;;;;1.10;0.80;;;16.00;71.50;;;;;;2005559;28;20511;-77
2022/04/06 04:01:22;;;;;;;1.23;1.13;;;16.00;71.50;;;;;;2005631;28;20170;-76
2022/04/06 04:02:21;;;;;;;1.38;1.13;;;16.00;71.60;;;;;;2005219;28;20659;-76
2022/04/06 04:03:19;;;;;;;1.70;1.40;;;16.10;71.70;;;;;;2005050;28;20185;-76
2022/04/06 04:04:18;;;;;;;2.13;1.20;;;16.00;71.50;;;;;;2005647;28;20173;-76
2022/04/06 04:05:17;;;;;;;1.40;1.20;;;16.00;71.50;;;;;;2005617;28;20177;-77
2022/04/06 04:06:16;;;;;;;2.90;1.38;;;16.00;71.50;;;;;;2005643;28;20470;-77
2022/04/06 04:07:24;;;;;;;2.00;1.20;;;16.00;71.60;;;;;;2005536;28;20177;-77
2022/04/06 04:08:23;;;;;;;1.20;1.10;;;16.00;71.40;;;;;;2004943;28;20260;-76
2022/04/06 04:09:21;;;;;;;2.10;1.10;;;16.00;71.50;;;;;;2004775;28;20205;-76
2022/04/06 04:10:20;;;;;;;1.93;1.23;;;16.00;71.50;;;;;;2005133;28;20192;-76
2022/04/06 04:11:18;;;;;;;1.77;1.37;;;16.00;71.40;;;;;;2005505;28;20177;-76
2022/04/06 04:12:19;;;;;;;2.13;1.30;;;16.00;71.60;;;;;;2005619;28;20169;-77
2022/04/06 04:13:17;;;;;;;3.20;1.20;;;15.90;71.40;;;;;;1997330;28;20635;-76
2022/04/06 04:14:16;;;;;;;1.20;1.10;;;15.90;71.30;;;;;;1997171;28;20588;-77
2022/04/06 04:15:16;;;;;;;2.20;1.30;;;15.90;71.40;;;;;;2004905;28;20232;-77
2022/04/06 04:16:15;;;;;;;1.70;1.40;;;15.90;71.40;;;;;;2005572;28;20662;-77
2022/04/06 04:17:13;;;;;;;1.33;1.00;;;15.90;71.40;;;;;;2005374;28;20181;-76
2022/04/06 04:18:12;;;;;;;1.67;1.10;;;16.00;71.60;;;;;;2005514;28;20220;-76
2022/04/06 04:19:11;;;;;;;1.95;1.70;;;15.90;71.30;;;;;;2005432;28;20181;-76
2022/04/06 04:20:10;;;;;;;1.60;1.10;;;15.90;71.50;;;;;;2005638;28;20188;-76
2022/04/06 04:22:30;;;;;;;4.03;1.38;;;15.90;71.40;;;;;;2005207;28;20252;-76
2022/04/06 04:23:29;;;;;;;1.92;1.35;;;15.90;71.40;;;;;;2004701;28;20540;-76
2022/04/06 04:24:28;;;;;;;1.83;1.40;;;15.90;71.40;;;;;;2005006;28;20208;-76
2022/04/06 04:25:29;;;;;;;1.53;1.17;;;15.90;71.40;;;;;;2004802;28;20598;-76
2022/04/06 04:26:31;;;;;;;1.45;1.30;;;15.90;71.40;;;;;;2004730;28;20178;-76
2022/04/06 04:27:29;;;;;;;2.40;1.20;;;15.90;71.50;;;;;;2004738;28;20543;-78
2022/04/06 04:28:28;;;;;;;1.83;1.40;;;15.90;71.40;;;;;;2004695;28;20200;-77
2022/04/06 04:29:26;;;;;;;3.40;1.50;;;15.90;71.60;;;;;;2005359;28;20215;-77
2022/04/06 04:30:25;;;;;;;2.27;1.30;;;15.90;71.50;;;;;;2005509;28;20279;-76
2022/04/06 04:31:24;;;;;;;2.13;1.40;;;15.90;71.40;;;;;;2005553;28;20177;-77
2022/04/06 04:32:23;;;;;;;3.13;1.50;;;15.90;71.40;;;;;;2005446;28;20181;-77
2022/04/06 04:33:25;;;;;;;2.47;1.57;;;15.90;71.50;;;;;;2005294;28;20181;-78
2022/04/06 04:34:23;;;;;;;2.65;1.77;;;15.90;71.40;;;;;;2005184;28;20177;-77
2022/04/06 04:35:22;;;;;;;1.60;1.50;;;15.90;71.50;;;;;;2005494;28;20177;-76
2022/04/06 04:36:23;;;;;;;1.50;1.30;;;15.90;71.40;;;;;;2005335;28;20260;-76
2022/04/06 04:37:22;;;;;;;1.70;1.60;;;15.90;71.50;;;;;;2005418;28;20199;-76
2022/04/06 04:38:21;;;;;;;1.40;1.17;;;15.90;71.40;;;;;;2005425;28;20169;-77
2022/04/06 04:39:21;;;;;;;1.83;1.60;;;15.90;71.50;;;;;;2005404;28;20413;-77
2022/04/06 04:40:21;;;;;;;2.40;1.70;;;15.90;71.50;;;;;;2005380;28;20199;-76
2022/04/06 04:41:20;;;;;;;1.50;1.23;;;15.90;71.50;;;;;;2004527;28;20183;-77
2022/04/06 04:42:19;;;;;;;1.50;1.37;;;15.90;71.50;;;;;;2005023;28;20169;-76
2022/04/06 04:43:18;;;;;;;2.45;1.75;;;15.90;71.50;;;;;;2005697;28;20416;-76
2022/04/06 04:44:17;;;;;;;3.13;1.30;;;15.90;71.40;;;;;;2005703;28;20601;-77
2022/04/06 04:45:15;;;;;;;1.43;1.23;;;15.80;71.40;;;;;;2005486;28;20173;-76
2022/04/06 04:46:15;;;;;;;2.83;1.23;;;16.00;71.60;;;;;;2005390;28;20169;-77
2022/04/06 04:47:16;;;;;;;1.98;1.55;;;16.00;71.60;;;;;;2005483;28;20296;-77
2022/04/06 04:48:16;;;;;;;2.42;1.80;;;16.00;71.50;;;;;;2005287;28;20181;-76
2022/04/06 04:49:14;;;;;;;1.42;1.33;;;15.90;71.50;;;;;;2005268;28;20668;-75
2022/04/06 04:50:14;;;;;;;2.20;1.60;;;16.00;71.50;;;;;;2005274;28;20199;-76
2022/04/06 04:51:13;;;;;;;2.25;1.35;;;15.90;71.40;;;;;;2005382;28;20534;-77
2022/04/06 04:52:12;;;;;;;2.28;1.60;;;16.00;72.20;;;;;;2005382;28;20177;-76
2022/04/06 04:53:10;;;;;;;1.60;1.27;;;16.00;71.60;;;;;;2005057;28;20597;-77
2022/04/06 04:54:10;;;;;;;2.43;1.70;;;16.00;71.50;;;;;;2005464;28;20180;-76
2022/04/06 04:55:09;;;;;;;3.28;1.85;;;16.00;71.50;;;;;;2005345;28;20172;-76
2022/04/06 04:56:08;;;;;;;1.70;1.60;;;16.00;71.40;;;;;;2005222;28;20268;-76
2022/04/06 04:57:07;;;;;;;2.03;1.65;;;16.00;71.30;;;;;;2005166;28;20423;-76
2022/04/06 04:58:05;;;;;;;4.33;2.30;;;16.00;71.50;;;;;;2005315;28;20205;-77
2022/04/06 04:59:07;;;;;;;3.27;1.63;;;16.00;71.50;;;;;;2005289;28;20181;-76
2022/04/06 05:00:11;;;;;;;2.40;1.60;;;16.00;71.40;;;;;;2005445;28;20399;-76
2022/04/06 05:01:11;;;;;;;1.80;1.55;;;15.90;71.40;;;;;;2005304;28;20189;-75
2022/04/06 05:02:10;;;;;;;3.30;1.80;;;16.00;71.50;;;;;;2005112;28;20181;-76
2022/04/06 05:03:09;;;;;;;1.52;1.35;;;15.90;71.50;;;;;;2005140;28;20260;-77
2022/04/06 05:04:08;;;;;;;3.47;1.97;;;16.00;71.60;;;;;;2005185;28;20173;-76
2022/04/06 05:05:08;;;;;;;3.00;1.50;;;15.90;71.50;;;;;;2003961;28;20220;-77
2022/04/06 05:06:07;;;;;;;2.42;1.73;;;15.90;71.60;;;;;;2004378;28;20189;-75
2022/04/06 05:07:07;;;;;;;2.10;1.23;;;15.90;71.60;;;;;;2004429;28;20205;-77
2022/04/06 05:08:06;;;;;;;3.80;2.03;;;15.90;71.60;;;;;;2004679;28;20173;-77
2022/04/06 05:09:05;;;;;;;3.63;1.27;;;15.90;71.60;;;;;;2005172;28;20201;-77
2022/04/06 05:10:05;;;;;;;1.93;1.23;;;15.90;71.40;;;;;;2005362;28;20649;-77
2022/04/06 05:11:04;;;;;;;1.48;1.20;;;16.00;71.60;;;;;;2005470;28;20903;-76
2022/04/06 05:12:08;;;;;;;3.87;1.77;;;15.90;71.40;;;;;;2004738;28;20204;-76
2022/04/06 05:13:06;;;;;;;2.13;1.58;;;15.90;72.30;;;;;;2004771;28;20169;-76
2022/04/06 05:14:05;;;;;;;1.50;1.10;;;15.90;71.70;;;;;;2010108;28;20236;-76
2022/04/06 05:15:22;;;;;;;2.23;1.50;;;15.90;71.70;;;;;;2009734;28;20207;-76